Time;durP1;ratioP1;P1;durP2;ratioP2;P2;SDS_P1;SDS_P2;PMS_P1;PMS_P2;Temp;Humidity;BMP_temperature;BMP_pressure;BME280_temperature;BME280_humidity;BME280_pressure;Samples;Min_cycle;Max_cycle;Signal;HPM_P1;HPM_P2
2022/04/16 00:01:38;;;;;;;;;16.60;16.00;;;;;14.51;52.45;99138.78;6263006;27;97656;-71
2022/04/16 00:04:45;;;;;;;;;17.60;16.60;;;;;14.53;52.34;99139.34;6245930;27;96584;-71
2022/04/16 00:08:06;;;;;;;;;19.00;17.00;;;;;14.54;52.30;99135.59;6245736;27;97111;-71
2022/04/16 00:11:09;;;;;;;;;18.00;16.00;;;;;14.54;52.22;99135.59;6241639;27;96832;-71
2022/04/16 00:14:13;;;;;;;;;18.80;17.40;;;;;14.53;51.97;99138.53;6261612;27;97297;-71
2022/04/16 00:17:19;;;;;;;;;15.80;15.00;;;;;14.52;51.97;99134.97;6243992;27;97622;-72
2022/04/16 00:20:25;;;;;;;;;21.40;18.40;;;;;14.54;51.90;99132.88;6262977;27;97563;-71
2022/04/16 00:23:28;;;;;;;;;20.50;18.00;;;;;14.58;51.80;99134.03;6263888;27;97059;-72
2022/04/16 00:26:32;;;;;;;;;18.00;16.40;;;;;14.55;51.91;99136.41;6258106;27;97145;-71
2022/04/16 00:29:36;;;;;;;;;19.00;16.80;;;;;14.45;51.99;99133.50;6233452;27;97507;-72
2022/04/16 00:32:40;;;;;;;;;18.00;18.00;;;;;14.47;52.10;99128.63;6224784;27;97982;-70
2022/04/16 00:35:44;;;;;;;;;17.80;16.40;;;;;14.49;52.14;99135.47;6242327;27;97693;-72
2022/04/16 00:38:48;;;;;;;;;18.00;16.25;;;;;14.44;52.14;99138.09;6254370;27;96919;-72
2022/04/16 00:41:52;;;;;;;;;21.00;18.00;;;;;14.42;52.26;99123.94;6236130;28;97165;-71
2022/04/16 00:44:55;;;;;;;;;18.50;17.00;;;;;14.44;52.13;99135.38;6218528;28;96983;-71
2022/04/16 00:48:00;;;;;;;;;22.60;20.00;;;;;14.46;52.22;99118.88;6251851;27;96632;-71
2022/04/16 00:51:05;;;;;;;;;26.00;22.67;;;;;14.52;52.12;99134.16;6236090;27;97768;-72
2022/04/16 00:54:08;;;;;;;;;27.00;23.50;;;;;14.41;52.00;99116.06;6260955;27;97668;-71
2022/04/16 00:57:12;;;;;;;;;25.00;20.00;;;;;14.51;52.07;99133.34;6260231;27;98097;-72
2022/04/16 01:00:16;;;;;;;;;27.00;22.25;;;;;14.55;52.18;99137.22;6243060;27;96499;-71
2022/04/16 01:03:19;;;;;;;;;28.00;21.40;;;;;14.46;52.32;99129.72;6240039;27;96983;-71
2022/04/16 01:06:24;;;;;;;;;21.00;19.00;;;;;14.58;52.14;99141.34;6232718;27;97444;-72
2022/04/16 01:09:27;;;;;;;;;25.50;22.00;;;;;14.64;52.21;99143.09;6260528;27;97408;-71
2022/04/16 01:12:30;;;;;;;;;24.00;22.00;;;;;14.63;52.10;99141.44;6244458;27;97570;-71
2022/04/16 01:15:34;;;;;;;;;22.40;20.00;;;;;14.63;52.23;99141.44;6262303;27;96852;-71
2022/04/16 01:18:46;;;;;;;;;25.00;21.00;;;;;14.62;52.31;99143.31;6262537;27;96466;-71
2022/04/16 01:21:51;;;;;;;;;23.00;19.00;;;;;14.60;52.38;99142.75;6262269;27;97828;-72
2022/04/16 01:24:56;;;;;;;;;24.00;20.00;;;;;14.67;52.05;99146.13;6251110;27;96977;-71
2022/04/16 01:28:01;;;;;;;;;24.00;21.00;;;;;14.67;52.36;99142.59;6237848;27;97163;-71
2022/04/16 01:31:05;;;;;;;;;30.75;24.50;;;;;14.73;52.18;99149.78;6243994;27;96406;-72
2022/04/16 01:34:08;;;;;;;;;27.00;23.00;;;;;14.66;52.31;99149.91;6257248;27;99378;-71
2022/04/16 01:37:12;;;;;;;;;24.80;21.80;;;;;14.75;52.36;99155.81;6243750;27;97543;-71
2022/04/16 01:40:17;;;;;;;;;29.00;24.00;;;;;14.78;52.38;99157.19;6262089;27;96583;-71
2022/04/16 01:43:20;;;;;;;;;17.00;14.60;;;;;14.73;52.13;99164.19;6226678;27;99488;-71
2022/04/16 01:46:23;;;;;;;;;10.60;9.60;;;;;14.65;52.20;99161.03;6244427;27;97707;-71
2022/04/16 01:49:27;;;;;;;;;6.00;5.00;;;;;14.65;51.59;99171.88;6243388;27;96488;-72
2022/04/16 01:52:30;;;;;;;;;5.00;5.00;;;;;14.65;51.65;99182.75;6262293;27;97698;-72
2022/04/16 01:55:34;;;;;;;;;4.20;4.20;;;;;14.39;51.82;99158.84;6252581;27;96796;-71
2022/04/16 01:58:38;;;;;;;;;4.00;4.00;;;;;14.33;51.78;99176.88;6262429;27;97022;-71
2022/04/16 02:01:41;;;;;;;;;5.00;3.20;;;;;14.22;51.79;99169.59;6226941;27;97273;-72
2022/04/16 02:04:45;;;;;;;;;5.00;4.00;;;;;14.15;52.25;99169.72;6248195;27;99284;-71
2022/04/16 02:07:49;;;;;;;;;3.60;3.60;;;;;14.04;51.92;99175.16;6266025;27;97746;-72
2022/04/16 02:10:55;;;;;;;;;5.00;4.40;;;;;13.87;52.26;99166.91;6231817;27;96873;-71
2022/04/16 02:13:58;;;;;;;;;3.60;3.00;;;;;13.95;52.29;99165.72;6248338;27;96473;-71
2022/04/16 02:17:01;;;;;;;;;4.00;4.00;;;;;13.80;52.32;99164.31;6266557;27;96574;-71
2022/04/16 02:20:06;;;;;;;;;3.00;3.00;;;;;13.87;52.31;99167.75;6227784;27;96864;-71
2022/04/16 02:23:10;;;;;;;;;3.00;2.00;;;;;13.89;52.28;99175.63;6223561;28;97710;-71
2022/04/16 02:26:18;;;;;;;;;3.25;3.25;;;;;13.86;52.40;99171.50;6223379;28;96463;-70
2022/04/16 02:29:21;;;;;;;;;3.00;3.00;;;;;13.90;52.40;99169.16;6261180;27;97529;-71
2022/04/16 02:32:25;;;;;;;;;4.00;4.00;;;;;13.93;52.25;99176.00;6244886;27;96865;-71
2022/04/16 02:35:29;;;;;;;;;3.75;3.00;;;;;13.84;52.36;99176.34;6245731;27;97062;-72
2022/04/16 02:38:32;;;;;;;;;3.00;3.00;;;;;13.77;52.40;99169.41;6264515;27;96689;-71
2022/04/16 02:41:37;;;;;;;;;3.00;3.00;;;;;13.72;52.85;99169.28;6264896;27;96832;-71
2022/04/16 02:48:01;;;;;;;;;2.00;2.00;;;;;13.68;53.02;99185.16;6264033;27;97052;-71
2022/04/16 02:51:04;;;;;;;;;3.00;3.00;;;;;13.69;53.05;99191.41;6245973;27;98575;-71
2022/04/16 02:54:07;;;;;;;;;4.80;4.00;;;;;13.66;52.95;99175.63;6265373;27;96568;-71
2022/04/16 02:57:13;;;;;;;;;4.00;3.60;;;;;13.75;53.33;99190.47;6265680;27;97059;-72
2022/04/16 03:00:16;;;;;;;;;3.00;3.00;;;;;13.68;53.24;99193.28;6230891;27;98328;-72
2022/04/16 03:03:19;;;;;;;;;3.60;3.00;;;;;13.54;53.29;99199.16;6265127;27;96650;-71
2022/04/16 03:06:23;;;;;;;;;3.00;3.00;;;;;13.45;53.15;99185.13;6247616;27;100144;-72
2022/04/16 03:09:26;;;;;;;;;5.00;4.00;;;;;13.54;53.18;99207.28;6265923;27;96838;-72
2022/04/16 03:12:41;;;;;;;;;3.00;3.00;;;;;13.49;53.25;99210.69;6265821;27;98025;-72
2022/04/16 03:19:05;;;;;;;;;3.00;3.00;;;;;13.47;53.59;99217.41;6265410;27;97062;-72
2022/04/16 03:22:08;;;;;;;;;4.00;3.00;;;;;13.49;53.57;99223.44;6265502;27;97447;-71
2022/04/16 03:25:11;;;;;;;;;3.00;3.00;;;;;13.54;53.26;99229.78;6265251;27;96581;-71
2022/04/16 03:28:16;;;;;;;;;2.25;2.25;;;;;13.55;52.99;99236.84;6246603;27;96692;-71
2022/04/16 03:31:20;;;;;;;;;3.00;2.00;;;;;13.52;52.57;99240.03;6246890;27;99242;-70
2022/04/16 03:34:23;;;;;;;;;3.00;2.00;;;;;13.46;51.86;99246.38;6244280;27;96653;-72
2022/04/16 03:37:27;;;;;;;;;2.00;2.00;;;;;13.31;51.71;99248.69;6246865;27;96774;-72
2022/04/16 03:40:31;;;;;;;;;2.00;2.00;;;;;13.15;51.82;99250.16;6265332;27;96656;-71
2022/04/16 03:43:35;;;;;;;;;2.00;1.00;;;;;13.09;51.52;99251.06;6265511;27;96874;-71
2022/04/16 03:46:38;;;;;;;;;2.00;2.00;;;;;13.10;51.74;99268.09;6264583;27;96873;-71
2022/04/16 03:49:43;;;;;;;;;1.00;1.00;;;;;13.10;51.69;99257.25;6229827;27;98775;-71
2022/04/16 03:52:48;;;;;;;;;2.00;1.40;;;;;12.87;51.70;99253.41;6265258;27;96488;-70
2022/04/16 04:02:35;;;;;;;;;3.00;2.00;;;;;12.90;51.79;99274.59;6246426;27;96691;-71
2022/04/16 04:05:39;;;;;;;;;3.00;3.00;;;;;12.70;51.73;99259.66;6243542;27;97023;-70
2022/04/16 04:08:42;;;;;;;;;2.00;1.00;;;;;12.83;51.74;99286.56;6260110;27;96895;-70
2022/04/16 04:11:47;;;;;;;;;1.00;1.00;;;;;12.86;51.98;99295.03;6245708;27;96592;-71
2022/04/16 04:14:52;;;;;;;;;2.00;2.00;;;;;12.89;51.48;99291.91;6262821;27;96613;-71
2022/04/16 04:17:56;;;;;;;;;2.60;2.00;;;;;12.87;51.82;99298.56;6244445;27;97292;-71
2022/04/16 04:20:59;;;;;;;;;1.00;1.00;;;;;12.72;52.09;99301.66;6263224;27;96765;-71
2022/04/16 04:24:03;;;;;;;;;2.00;2.00;;;;;12.68;52.42;99299.63;6243353;27;97473;-70
2022/04/16 04:27:07;;;;;;;;;1.00;1.00;;;;;12.66;52.27;99309.88;6262465;27;96994;-71
2022/04/16 04:30:13;;;;;;;;;1.25;1.25;;;;;12.66;52.35;99310.66;6262548;27;97695;-71
2022/04/16 04:33:17;;;;;;;;;2.00;2.00;;;;;12.66;52.49;99318.78;6261268;27;96734;-70
2022/04/16 04:36:20;;;;;;;;;1.00;1.00;;;;;12.64;52.39;99323.63;6244534;27;96663;-70
2022/04/16 04:39:23;;;;;;;;;1.00;1.00;;;;;12.68;52.59;99330.22;6227002;27;97024;-70
2022/04/16 04:42:28;;;;;;;;;2.00;1.00;;;;;12.53;52.56;99308.13;6227754;27;99936;-71
2022/04/16 04:45:33;;;;;;;;;1.00;1.00;;;;;12.46;52.53;99307.38;6223379;27;97043;-72
2022/04/16 04:48:37;;;;;;;;;1.80;1.80;;;;;12.73;52.45;99343.06;6228869;27;97463;-71
2022/04/16 04:51:40;;;;;;;;;1.40;1.40;;;;;12.77;52.30;99350.50;6245822;27;97473;-71
2022/04/16 04:54:43;;;;;;;;;2.00;2.00;;;;;12.76;52.03;99350.72;6263374;27;98192;-72
2022/04/16 04:57:46;;;;;;;;;1.00;1.00;;;;;12.73;52.25;99353.91;6245710;27;96840;-72
2022/04/16 05:00:51;;;;;;;;;2.00;2.00;;;;;12.72;52.81;99357.66;6243406;27;99584;-71
2022/04/16 05:03:54;;;;;;;;;2.00;2.00;;;;;12.70;52.54;99363.31;6245121;27;97288;-71
2022/04/16 05:06:57;;;;;;;;;2.00;2.00;;;;;12.67;52.44;99371.84;6251519;27;97527;-71
2022/04/16 05:10:01;;;;;;;;;2.00;1.80;;;;;12.48;51.95;99351.22;6245680;27;96593;-70
2022/04/16 05:13:04;;;;;;;;;2.00;2.00;;;;;12.68;51.76;99384.31;6228192;28;98602;-70
2022/04/16 05:16:08;;;;;;;;;1.00;1.00;;;;;12.63;51.27;99386.03;6256668;27;96826;-71
2022/04/16 05:19:12;;;;;;;;;1.00;1.00;;;;;12.57;51.36;99391.28;6244074;27;97947;-71
2022/04/16 05:22:15;;;;;;;;;1.00;1.00;;;;;12.49;51.46;99401.56;6263394;27;97479;-71
2022/04/16 05:25:18;;;;;;;;;1.00;1.00;;;;;12.39;51.60;99404.78;6261521;27;96822;-72
2022/04/16 05:28:22;;;;;;;;;1.00;1.00;;;;;12.25;51.88;99399.69;6242811;27;96588;-72
2022/04/16 05:31:27;;;;;;;;;1.00;0.00;;;;;12.18;51.99;99404.31;6242694;27;99470;-72
2022/04/16 05:34:31;;;;;;;;;2.00;2.00;;;;;12.32;51.70;99408.56;6255564;27;97309;-73
2022/04/16 05:37:35;;;;;;;;;1.00;1.00;;;;;12.36;51.60;99409.81;6260393;27;97444;-72
2022/04/16 05:40:38;;;;;;;;;2.00;1.00;;;;;12.40;52.04;99408.31;6245349;27;96932;-72
2022/04/16 05:43:41;;;;;;;;;2.00;2.00;;;;;12.38;52.14;99413.94;6263213;27;96564;-72
2022/04/16 05:46:49;;;;;;;;;2.00;1.00;;;;;12.48;51.70;99422.38;6236596;28;98595;-71
2022/04/16 05:49:52;;;;;;;;;1.00;1.00;;;;;12.48;51.38;99425.06;6219847;28;97193;-71
2022/04/16 05:52:55;;;;;;;;;1.00;1.00;;;;;12.47;51.39;99419.88;6247833;27;97008;-72
2022/04/16 05:56:00;;;;;;;;;1.00;1.00;;;;;12.48;51.58;99419.66;6242531;27;97604;-72
2022/04/16 05:59:03;;;;;;;;;0.00;0.00;;;;;12.41;51.36;99431.59;6227851;27;98450;-72
2022/04/16 06:02:10;;;;;;;;;1.00;1.00;;;;;12.40;51.30;99433.47;6243077;27;96976;-73
2022/04/16 06:05:13;;;;;;;;;1.00;1.00;;;;;12.38;51.56;99440.13;6234898;27;97112;-71
2022/04/16 06:08:16;;;;;;;;;1.00;1.00;;;;;12.30;51.71;99440.41;6237134;28;97818;-70
2022/04/16 06:11:21;;;;;;;;;2.00;1.00;;;;;12.27;51.94;99446.25;6235617;28;96945;-71
2022/04/16 06:14:24;;;;;;;;;1.00;1.00;;;;;12.31;51.71;99450.19;6218987;28;97194;-72
2022/04/16 06:17:29;;;;;;;;;1.75;1.00;;;;;12.33;51.93;99448.06;6238553;27;97380;-72
2022/04/16 06:20:32;;;;;;;;;2.00;2.00;;;;;12.40;51.93;99454.28;6243878;27;98028;-71
2022/04/16 06:23:35;;;;;;;;;2.00;1.00;;;;;12.50;51.65;99462.72;6261939;27;96458;-71
2022/04/16 06:26:38;;;;;;;;;1.50;1.50;;;;;12.49;51.53;99463.78;6244129;27;97993;-71
2022/04/16 06:29:42;;;;;;;;;2.00;2.00;;;;;12.53;51.81;99471.22;6240569;27;97739;-71
2022/04/16 06:32:47;;;;;;;;;3.00;3.00;;;;;12.61;51.72;99470.09;6259006;27;99486;-70
2022/04/16 06:35:50;;;;;;;;;1.00;1.00;;;;;12.64;51.86;99474.25;6259882;27;97216;-71
2022/04/16 06:38:56;;;;;;;;;3.00;3.00;;;;;12.67;52.08;99474.66;6244357;27;97024;-71
2022/04/16 06:41:59;;;;;;;;;3.20;3.20;;;;;12.69;52.30;99463.63;6262050;27;97459;-72
2022/04/16 06:45:03;;;;;;;;;2.00;2.00;;;;;12.76;51.94;99469.78;6234761;27;97295;-72
2022/04/16 06:48:08;;;;;;;;;3.00;3.00;;;;;12.81;51.77;99469.94;6235970;27;98873;-72
2022/04/16 06:51:11;;;;;;;;;5.00;5.00;;;;;12.80;51.56;99482.66;6247899;27;98818;-72
2022/04/16 06:54:14;;;;;;;;;4.25;4.00;;;;;12.84;51.95;99478.47;6240508;27;96830;-72
2022/04/16 06:57:18;;;;;;;;;4.00;4.00;;;;;12.85;51.88;99482.00;6246039;27;97275;-72
2022/04/16 07:00:21;;;;;;;;;4.00;4.00;;;;;12.89;51.90;99480.50;6261976;27;97623;-71
2022/04/16 07:03:26;;;;;;;;;4.00;4.00;;;;;12.81;51.53;99492.41;6246021;27;97463;-71
2022/04/16 07:06:29;;;;;;;;;5.00;4.00;;;;;12.85;51.83;99504.44;6245572;27;96923;-71
2022/04/16 07:09:38;;;;;;;;;4.00;4.00;;;;;12.84;51.54;99505.53;6234290;27;98680;-71
2022/04/16 07:12:41;;;;;;;;;3.00;3.00;;;;;12.88;51.27;99503.19;6242063;27;99834;-71
2022/04/16 07:15:44;;;;;;;;;3.00;2.00;;;;;12.84;51.53;99510.09;6242370;27;97366;-72
2022/04/16 07:18:49;;;;;;;;;4.00;4.00;;;;;12.80;51.03;99514.31;6259440;27;97507;-71
2022/04/16 07:21:54;;;;;;;;;3.00;3.00;;;;;12.68;51.22;99514.19;6263933;27;96504;-72
2022/04/16 07:24:57;;;;;;;;;5.00;3.00;;;;;12.84;51.24;99512.81;6263596;27;96969;-71
2022/04/16 07:28:01;;;;;;;;;3.00;3.00;;;;;12.84;50.78;99520.94;6263572;27;97618;-71
2022/04/16 07:31:04;;;;;;;;;3.20;3.20;;;;;12.82;50.59;99521.16;6262400;27;97006;-72
2022/04/16 07:34:09;;;;;;;;;4.60;3.60;;;;;12.74;50.75;99518.72;6232360;27;98488;-72
2022/04/16 07:37:12;;;;;;;;;3.00;3.00;;;;;12.79;50.86;99534.28;6262860;27;96718;-71
2022/04/16 07:40:15;;;;;;;;;4.00;4.00;;;;;12.78;50.81;99541.59;6243534;27;96932;-71
2022/04/16 07:43:18;;;;;;;;;4.00;4.00;;;;;12.69;51.04;99531.25;6261573;27;96903;-72
2022/04/16 07:46:22;;;;;;;;;6.00;5.00;;;;;12.68;50.89;99545.81;6262066;27;96741;-72
2022/04/16 07:49:27;;;;;;;;;5.00;4.67;;;;;12.47;50.88;99545.13;6243325;27;99011;-71
2022/04/16 07:52:30;;;;;;;;;7.60;6.00;;;;;12.27;50.77;99524.66;6240529;27;96873;-71
2022/04/16 07:55:34;;;;;;;;;6.00;5.00;;;;;12.41;51.26;99564.91;6233851;27;98481;-71
2022/04/16 07:58:37;;;;;;;;;6.50;6.50;;;;;12.39;51.40;99566.19;6236693;27;97112;-72
2022/04/16 08:01:40;;;;;;;;;5.80;5.00;;;;;12.35;51.54;99567.66;6224543;27;98500;-72
2022/04/16 08:04:45;;;;;;;;;6.60;6.00;;;;;12.43;51.10;99564.69;6245668;27;97693;-72
2022/04/16 08:07:49;;;;;;;;;8.00;6.00;;;;;12.46;51.30;99572.41;6233940;27;96939;-72
2022/04/16 08:10:53;;;;;;;;;8.00;7.00;;;;;12.45;51.10;99559.91;6241884;27;98270;-71
2022/04/16 08:13:56;;;;;;;;;6.40;5.40;;;;;12.50;50.89;99576.31;6242675;27;97471;-71
2022/04/16 08:17:00;;;;;;;;;8.00;7.00;;;;;12.33;51.08;99569.75;6261128;27;98080;-71
2022/04/16 08:20:06;;;;;;;;;6.40;6.00;;;;;12.46;50.68;99578.59;6226412;27;99725;-72
2022/04/16 08:23:09;;;;;;;;;7.40;7.00;;;;;12.24;51.26;99566.47;6226987;27;98620;-72
2022/04/16 08:26:12;;;;;;;;;9.00;8.00;;;;;12.39;50.89;99585.94;6241263;27;98038;-71
2022/04/16 08:29:16;;;;;;;;;8.00;7.40;;;;;12.42;51.41;99590.06;6249225;27;98734;-70
2022/04/16 08:32:19;;;;;;;;;7.00;6.80;;;;;12.33;51.12;99588.69;6241437;27;97886;-71
2022/04/16 08:35:27;;;;;;;;;9.00;7.00;;;;;12.35;51.49;99600.94;6262533;27;97417;-71
2022/04/16 08:38:31;;;;;;;;;9.00;8.00;;;;;12.42;51.38;99598.19;6244166;27;96862;-70
2022/04/16 08:41:34;;;;;;;;;7.40;7.00;;;;;12.43;51.12;99595.28;6261711;27;97317;-71
2022/04/16 08:44:40;;;;;;;;;9.00;8.00;;;;;12.49;50.75;99601.72;6261714;27;96490;-71
2022/04/16 08:47:44;;;;;;;;;8.60;7.60;;;;;12.37;50.98;99603.41;6261827;27;97533;-72
2022/04/16 08:50:49;;;;;;;;;9.00;7.40;;;;;12.29;50.84;99595.56;6254856;27;97169;-72
2022/04/16 08:53:52;;;;;;;;;10.50;9.50;;;;;12.28;50.68;99610.94;6261480;27;97885;-72
2022/04/16 08:56:56;;;;;;;;;9.00;8.80;;;;;12.33;51.27;99613.00;6260635;27;96832;-72
2022/04/16 08:59:59;;;;;;;;;10.00;8.50;;;;;12.29;51.34;99625.31;6250739;27;97638;-71
2022/04/16 09:03:05;;;;;;;;;7.00;7.00;;;;;12.34;50.77;99620.91;6222376;27;99661;-72
2022/04/16 09:06:09;;;;;;;;;8.20;7.80;;;;;12.30;51.06;99619.69;6261643;27;97476;-72
2022/04/16 09:09:13;;;;;;;;;7.40;7.40;;;;;12.23;50.76;99618.03;6260377;27;98524;-72
2022/04/16 09:12:18;;;;;;;;;7.20;7.00;;;;;12.10;50.29;99592.75;6259839;27;97505;-72
2022/04/16 09:15:24;;;;;;;;;7.25;7.00;;;;;12.41;49.49;99619.00;6233713;27;99748;-72
2022/04/16 09:18:28;;;;;;;;;6.60;6.00;;;;;12.51;49.96;99624.78;6254423;27;97028;-72
2022/04/16 09:21:32;;;;;;;;;8.20;7.00;;;;;12.57;49.33;99625.78;6260506;27;97062;-73
2022/04/16 09:24:46;;;;;;;;;8.60;8.00;;;;;12.50;49.07;99627.72;6261075;27;96757;-72
2022/04/16 09:27:50;;;;;;;;;8.00;7.00;;;;;12.59;49.32;99632.66;6229934;27;97527;-72
2022/04/16 09:30:55;;;;;;;;;8.00;7.40;;;;;12.76;49.25;99630.25;6218895;27;99430;-72
2022/04/16 09:33:59;;;;;;;;;7.60;7.60;;;;;12.74;48.63;99609.88;6258877;27;97674;-72
2022/04/16 09:37:14;;;;;;;;;8.00;7.00;;;;;12.70;47.80;99592.44;6257370;27;97661;-72
2022/04/16 09:40:18;;;;;;;;;8.25;8.25;;;;;13.08;47.68;99630.25;6249178;27;97505;-72
2022/04/16 09:43:21;;;;;;;;;9.40;8.00;;;;;13.03;47.00;99610.09;6242645;27;97211;-72
2022/04/16 09:46:27;;;;;;;;;8.00;7.00;;;;;13.36;47.09;99647.75;6259674;27;97517;-73
2022/04/16 09:49:34;;;;;;;;;9.40;7.40;;;;;13.29;47.20;99629.91;6217146;27;97754;-72
2022/04/16 09:52:40;;;;;;;;;7.40;7.00;;;;;13.45;46.41;99642.88;6250329;27;96824;-71
2022/04/16 09:55:44;;;;;;;;;7.00;6.20;;;;;13.27;45.59;99630.13;6238976;27;97536;-72
2022/04/16 09:58:53;;;;;;;;;9.00;9.00;;;;;13.50;46.15;99658.47;6241069;27;98059;-72
2022/04/16 10:01:56;;;;;;;;;7.00;7.00;;;;;13.52;46.11;99659.09;6240419;27;99555;-72
2022/04/16 10:05:01;;;;;;;;;7.00;6.00;;;;;13.17;45.42;99631.66;6258831;27;96810;-73
2022/04/16 10:08:08;;;;;;;;;6.60;6.00;;;;;13.19;45.08;99675.63;6241007;27;97460;-72
2022/04/16 10:11:19;;;;;;;;;6.00;5.75;;;;;13.10;45.92;99676.88;6258963;27;96709;-72
2022/04/16 10:14:29;;;;;;;;;7.00;6.00;;;;;13.12;46.03;99682.94;6258215;27;96989;-72
2022/04/16 10:17:35;;;;;;;;;6.60;5.60;;;;;13.14;45.79;99680.84;6241841;27;97570;-72
2022/04/16 10:20:38;;;;;;;;;5.00;5.00;;;;;13.13;45.42;99682.72;6260962;27;97665;-72
2022/04/16 10:23:43;;;;;;;;;5.50;5.00;;;;;13.15;45.25;99690.63;6220698;27;96897;-71
2022/04/16 10:26:46;;;;;;;;;6.00;5.40;;;;;13.30;44.99;99688.41;6264556;27;97517;-71
2022/04/16 10:29:50;;;;;;;;;8.00;7.00;;;;;13.50;45.14;99686.38;6235510;27;99426;-73
2022/04/16 10:32:53;;;;;;;;;6.60;6.60;;;;;13.39;43.83;99674.38;6238263;27;99566;-72
2022/04/16 10:36:02;;;;;;;;;6.40;5.00;;;;;13.42;43.77;99700.22;6239883;27;98020;-72
2022/04/16 10:39:16;;;;;;;;;5.00;5.00;;;;;13.44;43.71;99696.22;6237984;27;98404;-72
2022/04/16 10:42:30;;;;;;;;;5.25;5.25;;;;;13.30;43.06;99675.72;6265124;27;97486;-73
2022/04/16 10:45:57;;;;;;;;;7.00;6.00;;;;;13.53;42.67;99696.81;6237941;27;98019;-73
2022/04/16 10:49:04;;;;;;;;;4.80;4.00;;;;;13.59;41.81;99709.44;6263506;27;97204;-72
2022/04/16 10:52:19;;;;;;;;;5.00;4.60;;;;;13.84;41.69;99714.84;6261290;27;97513;-69
2022/04/16 10:55:30;;;;;;;;;7.00;6.00;;;;;14.02;41.40;99717.63;6233894;27;98422;-71
2022/04/16 10:58:34;;;;;;;;;6.20;6.00;;;;;14.15;40.77;99716.66;6258322;27;97184;-70
2022/04/16 11:01:38;;;;;;;;;6.00;5.00;;;;;14.37;40.47;99709.75;6238742;27;97647;-66
2022/04/16 11:04:41;;;;;;;;;5.60;5.60;;;;;14.58;39.83;99711.19;6260720;27;98026;-68
2022/04/16 11:07:47;;;;;;;;;4.80;4.80;;;;;14.77;38.88;99711.97;6259502;27;97120;-69
2022/04/16 11:10:57;;;;;;;;;5.00;4.25;;;;;15.24;39.54;99711.13;6261224;27;97710;-67
2022/04/16 11:14:08;;;;;;;;;5.00;5.00;;;;;15.67;37.85;99712.78;6243582;27;97926;-70
2022/04/16 11:17:14;;;;;;;;;7.00;6.75;;;;;15.94;36.80;99720.22;6248286;27;97360;-70
2022/04/16 11:20:18;;;;;;;;;5.00;5.00;;;;;16.13;36.55;99728.25;6233172;27;98388;-71
2022/04/16 11:23:25;;;;;;;;;6.00;6.00;;;;;16.00;36.75;99724.72;6242535;27;97510;-71
2022/04/16 11:36:33;;;;;;;;;6.00;5.00;;;;;15.88;35.50;99731.25;6244303;27;98542;-71
2022/04/16 11:39:37;;;;;;;;;4.00;4.00;;;;;15.92;34.97;99725.09;6236289;27;97634;-72
2022/04/16 11:42:46;;;;;;;;;3.00;3.00;;;;;16.01;34.23;99729.13;6259924;27;98028;-71
2022/04/16 11:45:49;;;;;;;;;4.00;4.00;;;;;16.33;34.75;99723.28;6240916;27;96839;-71
2022/04/16 11:48:53;;;;;;;;;3.60;3.40;;;;;16.79;34.02;99704.16;6242850;27;97409;-73
2022/04/16 11:51:57;;;;;;;;;4.25;4.25;;;;;17.55;32.86;99715.63;6260168;27;96558;-73
2022/04/16 11:55:01;;;;;;;;;5.00;5.00;;;;;18.26;31.59;99717.59;6244419;27;97350;-71
2022/04/16 11:58:08;;;;;;;;;5.00;5.00;;;;;18.44;30.71;99719.19;6226773;27;97991;-72
2022/04/16 12:01:12;;;;;;;;;6.00;5.00;;;;;18.61;30.46;99728.22;6243356;27;96830;-72
2022/04/16 12:04:15;;;;;;;;;4.80;4.80;;;;;18.47;29.80;99705.06;6242883;27;97500;-71
2022/04/16 12:07:19;;;;;;;;;5.00;4.40;;;;;18.39;30.05;99708.19;6242618;27;98941;-71
2022/04/16 12:10:25;;;;;;;;;5.60;4.60;;;;;18.26;30.13;99723.06;6227936;27;97167;-71
2022/04/16 12:13:36;;;;;;;;;7.25;6.75;;;;;18.01;29.35;99731.69;6231864;27;99541;-70
2022/04/16 12:16:40;;;;;;;;;6.00;6.00;;;;;17.87;30.42;99724.09;6244865;27;96714;-72
2022/04/16 12:19:43;;;;;;;;;5.00;5.00;;;;;17.57;30.65;99733.41;6243008;27;99190;-73
2022/04/16 12:22:48;;;;;;;;;4.60;4.00;;;;;17.45;30.99;99723.63;6255979;27;97436;-69
2022/04/16 12:26:04;;;;;;;;;4.60;4.60;;;;;17.23;31.19;99732.53;6257226;27;96631;-71
2022/04/16 12:29:10;;;;;;;;;3.00;3.00;;;;;17.13;32.02;99724.16;6260751;27;97010;-73
2022/04/16 12:32:24;;;;;;;;;3.00;3.00;;;;;16.97;30.83;99735.81;6224178;27;100061;-73
2022/04/16 12:35:28;;;;;;;;;4.00;4.00;;;;;16.68;30.51;99707.75;6258501;27;97531;-71
2022/04/16 12:38:32;;;;;;;;;3.00;2.50;;;;;16.88;30.54;99727.22;6262520;27;97447;-76
2022/04/16 12:41:37;;;;;;;;;2.00;2.00;;;;;17.05;29.07;99735.44;6243214;27;98589;-72
2022/04/16 12:44:42;;;;;;;;;3.00;3.00;;;;;17.27;29.02;99725.50;6256107;27;98226;-75
2022/04/16 12:47:45;;;;;;;;;2.00;2.00;;;;;17.41;28.91;99733.38;6246066;27;97633;-70
2022/04/16 12:50:48;;;;;;;;;3.60;3.60;;;;;17.36;28.62;99736.81;6257547;27;98438;-71
2022/04/16 12:53:52;;;;;;;;;3.00;3.00;;;;;17.23;28.92;99748.88;6258625;27;97047;-70
2022/04/16 12:56:55;;;;;;;;;2.00;2.00;;;;;17.04;29.34;99743.84;6260681;27;98495;-71
2022/04/16 12:59:59;;;;;;;;;1.00;1.00;;;;;16.94;29.23;99743.66;6256076;27;96842;-72
2022/04/16 13:03:03;;;;;;;;;4.00;3.50;;;;;16.87;29.45;99746.50;6259682;27;96538;-73
2022/04/16 13:06:07;;;;;;;;;3.33;3.33;;;;;16.87;30.00;99746.50;6258784;27;97392;-73
2022/04/16 13:09:10;;;;;;;;;3.40;3.40;;;;;16.83;30.19;99748.91;6233863;27;98984;-73
2022/04/16 13:12:15;;;;;;;;;3.00;3.00;;;;;16.76;29.96;99750.91;6243812;27;99418;-72
2022/04/16 13:15:20;;;;;;;;;5.00;5.00;;;;;16.85;29.96;99746.78;6243708;27;96664;-73
2022/04/16 13:18:23;;;;;;;;;4.75;4.00;;;;;16.88;30.58;99749.00;6256750;27;97063;-73
2022/04/16 13:21:27;;;;;;;;;3.00;3.00;;;;;16.81;29.57;99723.00;6255960;27;97008;-73
2022/04/16 13:24:30;;;;;;;;;3.40;3.40;;;;;17.05;29.29;99764.59;6230019;27;98921;-73
2022/04/16 13:27:34;;;;;;;;;5.00;5.00;;;;;17.05;29.43;99759.97;6240415;27;97462;-73
2022/04/16 13:30:38;;;;;;;;;3.20;3.00;;;;;17.17;30.18;99754.47;6236434;27;97226;-73
2022/04/16 13:33:42;;;;;;;;;3.00;3.00;;;;;16.98;28.62;99729.31;6225203;28;97959;-73
2022/04/16 13:36:46;;;;;;;;;3.00;3.00;;;;;17.16;28.59;99748.19;6234185;28;97985;-73
2022/04/16 13:43:09;;;;;;;;;3.00;3.00;;;;;16.98;27.42;99745.66;6241186;27;97199;-72
2022/04/16 13:46:14;;;;;;;;;2.00;2.00;;;;;17.09;28.76;99754.84;6230891;28;97521;-74
2022/04/16 13:49:17;;;;;;;;;3.50;3.50;;;;;17.07;28.62;99757.81;6231123;28;99802;-74
2022/04/16 13:52:20;;;;;;;;;4.00;4.00;;;;;17.06;29.20;99758.06;6230880;28;97306;-72
2022/04/16 13:55:24;;;;;;;;;3.00;3.00;;;;;17.23;28.38;99748.03;6230967;28;96625;-73
2022/04/16 13:58:27;;;;;;;;;2.00;2.00;;;;;17.16;27.75;99755.53;6232089;28;96733;-74
2022/04/16 14:01:32;;;;;;;;;3.00;2.00;;;;;17.17;27.76;99762.63;6211956;28;98386;-73
2022/04/16 14:07:56;;;;;;;;;2.20;2.20;;;;;17.03;28.00;99764.81;6223267;27;97445;-72
2022/04/16 14:10:59;;;;;;;;;3.00;3.00;;;;;16.84;28.26;99744.28;6208917;28;100112;-72
2022/04/16 14:14:02;;;;;;;;;4.00;4.00;;;;;16.99;27.57;99755.47;6233295;28;96680;-72
2022/04/16 14:17:07;;;;;;;;;2.00;2.00;;;;;16.95;28.22;99762.50;6233155;28;97484;-72
2022/04/16 14:20:11;;;;;;;;;2.00;2.00;;;;;16.94;28.75;99763.56;6232519;28;96770;-73
2022/04/16 14:23:14;;;;;;;;;3.00;3.00;;;;;16.87;28.07;99754.69;6232902;28;96880;-72
2022/04/16 14:26:18;;;;;;;;;6.00;4.00;;;;;16.52;28.18;99754.72;6245251;27;96911;-71
2022/04/16 14:29:21;;;;;;;;;2.00;2.00;;;;;16.52;28.71;99764.81;6238727;27;97541;-73
2022/04/16 14:32:25;;;;;;;;;4.00;4.00;;;;;16.54;28.76;99762.66;6229074;28;98697;-71
2022/04/16 14:35:29;;;;;;;;;3.00;3.00;;;;;16.60;28.98;99770.75;6230019;28;97219;-71
2022/04/16 14:38:33;;;;;;;;;2.00;2.00;;;;;16.60;28.19;99772.63;6232662;28;97422;-73
2022/04/16 14:41:36;;;;;;;;;4.00;3.20;;;;;16.56;27.97;99768.72;6229791;28;98365;-74
2022/04/16 14:44:41;;;;;;;;;4.00;3.00;;;;;16.54;27.79;99765.38;6227230;28;96777;-72
2022/04/16 14:47:46;;;;;;;;;4.00;4.00;;;;;16.51;28.62;99771.31;6228009;28;97599;-72
2022/04/16 14:50:50;;;;;;;;;3.00;3.00;;;;;16.39;27.77;99763.16;6229980;28;97322;-73
2022/04/16 14:53:53;;;;;;;;;3.00;3.00;;;;;16.21;28.10;99763.28;6228580;28;99444;-73
2022/04/16 14:56:57;;;;;;;;;4.60;4.00;;;;;16.18;27.90;99774.63;6228780;28;97440;-73